sensor_id;sensor_type;location;lat;lon;timestamp;temperature;humidity
23609;DHT22;11982;50.810;4.442;2022-11-20T00:00:55;4.50;99.90
23609;DHT22;11982;50.810;4.442;2022-11-20T00:03:21;4.50;99.90
23609;DHT22;11982;50.810;4.442;2022-11-20T00:05:47;4.40;99.90
23609;DHT22;11982;50.810;4.442;2022-11-20T00:08:12;4.40;99.90
23609;DHT22;11982;50.810;4.442;2022-11-20T00:10:41;4.40;99.90
23609;DHT22;11982;50.810;4.442;2022-11-20T00:13:07;4.40;99.90
23609;DHT22;11982;50.810;4.442;2022-11-20T00:15:33;4.50;99.90
23609;DHT22;11982;50.810;4.442;2022-11-20T00:17:59;4.40;99.90
23609;DHT22;11982;50.810;4.442;2022-11-20T00:20:24;4.40;99.90
23609;DHT22;11982;50.810;4.442;2022-11-20T00:22:50;4.30;99.90
23609;DHT22;11982;50.810;4.442;2022-11-20T00:25:16;4.40;99.90
23609;DHT22;11982;50.810;4.442;2022-11-20T00:27:42;4.40;99.90
23609;DHT22;11982;50.810;4.442;2022-11-20T00:30:08;4.50;99.90
23609;DHT22;11982;50.810;4.442;2022-11-20T00:32:34;4.50;99.90
23609;DHT22;11982;50.810;4.442;2022-11-20T00:34:59;4.50;99.90
23609;DHT22;11982;50.810;4.442;2022-11-20T00:37:25;4.70;99.90
23609;DHT22;11982;50.810;4.442;2022-11-20T00:39:51;4.70;99.90
23609;DHT22;11982;50.810;4.442;2022-11-20T00:42:17;4.60;99.90
23609;DHT22;11982;50.810;4.442;2022-11-20T00:44:42;4.60;99.90
23609;DHT22;11982;50.810;4.442;2022-11-20T00:47:08;4.60;99.90
23609;DHT22;11982;50.810;4.442;2022-11-20T00:49:34;4.50;99.90
23609;DHT22;11982;50.810;4.442;2022-11-20T00:51:59;4.50;99.90
23609;DHT22;11982;50.810;4.442;2022-11-20T00:54:25;4.50;99.90
23609;DHT22;11982;50.810;4.442;2022-11-20T00:56:53;4.60;99.90
23609;DHT22;11982;50.810;4.442;2022-11-20T00:59:18;4.60;99.90
23609;DHT22;11982;50.810;4.442;2022-11-20T01:01:45;4.70;99.90
23609;DHT22;11982;50.810;4.442;2022-11-20T01:04:10;4.80;99.90
23609;DHT22;11982;50.810;4.442;2022-11-20T01:06:37;4.80;99.90
23609;DHT22;11982;50.810;4.442;2022-11-20T01:09:12;4.90;99.90
23609;DHT22;11982;50.810;4.442;2022-11-20T01:11:38;5.10;99.90
23609;DHT22;11982;50.810;4.442;2022-11-20T01:14:07;5.10;99.90
23609;DHT22;11982;50.810;4.442;2022-11-20T01:16:37;5.10;99.90
23609;DHT22;11982;50.810;4.442;2022-11-20T01:19:06;5.10;99.90
23609;DHT22;11982;50.810;4.442;2022-11-20T01:21:34;4.90;99.90
23609;DHT22;11982;50.810;4.442;2022-11-20T01:24:00;4.80;99.90
23609;DHT22;11982;50.810;4.442;2022-11-20T01:26:28;4.80;99.90
23609;DHT22;11982;50.810;4.442;2022-11-20T01:28:55;4.70;99.90
23609;DHT22;11982;50.810;4.442;2022-11-20T01:31:29;4.60;99.90
23609;DHT22;11982;50.810;4.442;2022-11-20T01:33:57;4.20;99.90
23609;DHT22;11982;50.810;4.442;2022-11-20T01:36:26;4.40;99.90
23609;DHT22;11982;50.810;4.442;2022-11-20T01:38:53;4.40;99.90
23609;DHT22;11982;50.810;4.442;2022-11-20T01:41:20;4.60;99.90
23609;DHT22;11982;50.810;4.442;2022-11-20T01:44:05;4.80;99.90
23609;DHT22;11982;50.810;4.442;2022-11-20T01:46:33;4.80;99.90
23609;DHT22;11982;50.810;4.442;2022-11-20T01:49:03;4.70;99.90
23609;DHT22;11982;50.810;4.442;2022-11-20T01:51:35;4.80;99.90
23609;DHT22;11982;50.810;4.442;2022-11-20T01:54:06;4.90;99.90
23609;DHT22;11982;50.810;4.442;2022-11-20T01:56:37;4.90;99.90
23609;DHT22;11982;50.810;4.442;2022-11-20T01:59:05;4.90;99.90
23609;DHT22;11982;50.810;4.442;2022-11-20T02:01:33;5.00;99.90
23609;DHT22;11982;50.810;4.442;2022-11-20T02:03:59;5.00;99.90
23609;DHT22;11982;50.810;4.442;2022-11-20T02:06:25;4.90;99.90
23609;DHT22;11982;50.810;4.442;2022-11-20T02:08:53;5.00;99.90
23609;DHT22;11982;50.810;4.442;2022-11-20T02:11:19;5.00;99.90
23609;DHT22;11982;50.810;4.442;2022-11-20T02:13:45;5.00;99.90
23609;DHT22;11982;50.810;4.442;2022-11-20T02:16:24;4.90;99.90
23609;DHT22;11982;50.810;4.442;2022-11-20T02:18:51;4.90;99.90
23609;DHT22;11982;50.810;4.442;2022-11-20T02:21:40;4.90;99.90
23609;DHT22;11982;50.810;4.442;2022-11-20T02:24:15;5.10;99.90
23609;DHT22;11982;50.810;4.442;2022-11-20T02:29:22;4.70;99.90
23609;DHT22;11982;50.810;4.442;2022-11-20T02:31:48;4.80;99.90
23609;DHT22;11982;50.810;4.442;2022-11-20T02:34:14;4.90;99.90
23609;DHT22;11982;50.810;4.442;2022-11-20T02:36:40;4.90;99.90
23609;DHT22;11982;50.810;4.442;2022-11-20T02:39:07;4.60;99.90
23609;DHT22;11982;50.810;4.442;2022-11-20T02:41:35;4.70;99.90
23609;DHT22;11982;50.810;4.442;2022-11-20T02:44:02;4.60;99.90
23609;DHT22;11982;50.810;4.442;2022-11-20T02:46:28;4.50;99.90
23609;DHT22;11982;50.810;4.442;2022-11-20T02:48:54;4.40;99.90
23609;DHT22;11982;50.810;4.442;2022-11-20T02:51:19;4.40;99.90
23609;DHT22;11982;50.810;4.442;2022-11-20T02:53:45;4.20;99.90
23609;DHT22;11982;50.810;4.442;2022-11-20T02:56:11;4.10;99.90
23609;DHT22;11982;50.810;4.442;2022-11-20T02:58:37;3.90;99.90
23609;DHT22;11982;50.810;4.442;2022-11-20T03:01:02;4.00;99.90
23609;DHT22;11982;50.810;4.442;2022-11-20T03:03:28;4.00;99.90
23609;DHT22;11982;50.810;4.442;2022-11-20T03:05:54;4.00;99.90
23609;DHT22;11982;50.810;4.442;2022-11-20T03:08:19;4.00;99.90
23609;DHT22;11982;50.810;4.442;2022-11-20T03:10:45;3.90;99.90
23609;DHT22;11982;50.810;4.442;2022-11-20T03:13:10;3.90;99.90
23609;DHT22;11982;50.810;4.442;2022-11-20T03:15:36;3.90;99.90
23609;DHT22;11982;50.810;4.442;2022-11-20T03:18:03;3.90;99.90
23609;DHT22;11982;50.810;4.442;2022-11-20T03:20:28;4.00;99.90
23609;DHT22;11982;50.810;4.442;2022-11-20T03:22:54;3.90;99.90
23609;DHT22;11982;50.810;4.442;2022-11-20T03:25:21;3.80;99.90
23609;DHT22;11982;50.810;4.442;2022-11-20T03:27:46;3.80;99.90
23609;DHT22;11982;50.810;4.442;2022-11-20T03:30:12;3.80;99.90
23609;DHT22;11982;50.810;4.442;2022-11-20T03:32:38;3.80;99.90
23609;DHT22;11982;50.810;4.442;2022-11-20T03:35:04;3.80;99.90
23609;DHT22;11982;50.810;4.442;2022-11-20T03:37:30;3.80;99.90
23609;DHT22;11982;50.810;4.442;2022-11-20T03:39:55;3.80;99.90
23609;DHT22;11982;50.810;4.442;2022-11-20T03:42:21;3.90;99.90
23609;DHT22;11982;50.810;4.442;2022-11-20T03:45:05;3.90;99.90
23609;DHT22;11982;50.810;4.442;2022-11-20T03:47:31;4.00;99.90
23609;DHT22;11982;50.810;4.442;2022-11-20T03:49:57;4.20;99.90
23609;DHT22;11982;50.810;4.442;2022-11-20T03:52:22;4.10;99.90
23609;DHT22;11982;50.810;4.442;2022-11-20T03:54:48;4.10;99.90
23609;DHT22;11982;50.810;4.442;2022-11-20T03:57:13;4.20;99.90
23609;DHT22;11982;50.810;4.442;2022-11-20T03:59:39;4.00;99.90
23609;DHT22;11982;50.810;4.442;2022-11-20T04:02:04;4.00;99.90
23609;DHT22;11982;50.810;4.442;2022-11-20T04:04:30;4.20;99.90
23609;DHT22;11982;50.810;4.442;2022-11-20T04:06:56;4.10;99.90
23609;DHT22;11982;50.810;4.442;2022-11-20T04:09:21;4.10;99.90
23609;DHT22;11982;50.810;4.442;2022-11-20T04:11:47;4.10;99.90
23609;DHT22;11982;50.810;4.442;2022-11-20T04:14:14;4.10;99.90
23609;DHT22;11982;50.810;4.442;2022-11-20T04:16:40;4.20;99.90
23609;DHT22;11982;50.810;4.442;2022-11-20T04:19:10;4.30;99.90
23609;DHT22;11982;50.810;4.442;2022-11-20T04:21:37;4.30;99.90
23609;DHT22;11982;50.810;4.442;2022-11-20T04:24:03;4.30;99.90
23609;DHT22;11982;50.810;4.442;2022-11-20T04:26:30;4.30;99.90
23609;DHT22;11982;50.810;4.442;2022-11-20T04:28:56;4.30;99.90
23609;DHT22;11982;50.810;4.442;2022-11-20T04:31:27;4.30;99.90
23609;DHT22;11982;50.810;4.442;2022-11-20T04:33:53;4.50;99.90
23609;DHT22;11982;50.810;4.442;2022-11-20T04:36:24;4.60;99.90
23609;DHT22;11982;50.810;4.442;2022-11-20T04:38:57;4.70;99.90
23609;DHT22;11982;50.810;4.442;2022-11-20T04:41:26;4.90;99.90
23609;DHT22;11982;50.810;4.442;2022-11-20T04:43:54;5.20;99.90
23609;DHT22;11982;50.810;4.442;2022-11-20T04:46:25;5.30;99.90
23609;DHT22;11982;50.810;4.442;2022-11-20T04:48:51;5.10;99.90
23609;DHT22;11982;50.810;4.442;2022-11-20T04:51:17;5.20;99.90
23609;DHT22;11982;50.810;4.442;2022-11-20T04:53:43;5.10;99.90
23609;DHT22;11982;50.810;4.442;2022-11-20T04:56:10;5.00;99.90
23609;DHT22;11982;50.810;4.442;2022-11-20T04:58:36;5.20;99.90
23609;DHT22;11982;50.810;4.442;2022-11-20T05:01:03;5.20;99.90
23609;DHT22;11982;50.810;4.442;2022-11-20T05:03:30;5.30;99.90
23609;DHT22;11982;50.810;4.442;2022-11-20T05:05:56;5.50;99.90
23609;DHT22;11982;50.810;4.442;2022-11-20T05:08:22;5.50;99.90
23609;DHT22;11982;50.810;4.442;2022-11-20T05:10:47;5.70;99.90
23609;DHT22;11982;50.810;4.442;2022-11-20T05:13:13;5.70;99.90
23609;DHT22;11982;50.810;4.442;2022-11-20T05:15:39;5.70;99.90
23609;DHT22;11982;50.810;4.442;2022-11-20T05:18:04;5.80;99.90
23609;DHT22;11982;50.810;4.442;2022-11-20T05:20:30;5.90;99.90
23609;DHT22;11982;50.810;4.442;2022-11-20T05:22:58;6.00;99.90
23609;DHT22;11982;50.810;4.442;2022-11-20T05:25:23;5.60;99.90
23609;DHT22;11982;50.810;4.442;2022-11-20T05:27:49;5.50;99.90
23609;DHT22;11982;50.810;4.442;2022-11-20T05:30:15;5.70;99.90
23609;DHT22;11982;50.810;4.442;2022-11-20T05:32:40;5.60;99.90
23609;DHT22;11982;50.810;4.442;2022-11-20T05:35:06;5.70;99.90
23609;DHT22;11982;50.810;4.442;2022-11-20T05:37:32;5.40;99.90
23609;DHT22;11982;50.810;4.442;2022-11-20T05:39:57;5.50;99.90
23609;DHT22;11982;50.810;4.442;2022-11-20T05:42:23;5.50;99.90
23609;DHT22;11982;50.810;4.442;2022-11-20T05:45:01;5.60;99.90
23609;DHT22;11982;50.810;4.442;2022-11-20T05:47:32;5.80;99.90
23609;DHT22;11982;50.810;4.442;2022-11-20T05:49:58;5.60;99.90
23609;DHT22;11982;50.810;4.442;2022-11-20T05:52:24;5.70;99.90
23609;DHT22;11982;50.810;4.442;2022-11-20T05:54:50;5.70;99.90
23609;DHT22;11982;50.810;4.442;2022-11-20T05:57:16;5.50;99.90
23609;DHT22;11982;50.810;4.442;2022-11-20T05:59:42;5.50;99.90
23609;DHT22;11982;50.810;4.442;2022-11-20T06:02:07;5.40;99.90
23609;DHT22;11982;50.810;4.442;2022-11-20T06:04:33;5.60;99.90
23609;DHT22;11982;50.810;4.442;2022-11-20T06:06:58;5.60;99.90
23609;DHT22;11982;50.810;4.442;2022-11-20T06:09:24;5.60;99.90
23609;DHT22;11982;50.810;4.442;2022-11-20T06:11:49;5.70;99.90
23609;DHT22;11982;50.810;4.442;2022-11-20T06:14:15;5.70;99.90
23609;DHT22;11982;50.810;4.442;2022-11-20T06:16:41;5.70;99.90
23609;DHT22;11982;50.810;4.442;2022-11-20T06:19:06;5.80;99.90
23609;DHT22;11982;50.810;4.442;2022-11-20T06:21:32;5.90;99.90
23609;DHT22;11982;50.810;4.442;2022-11-20T06:23:57;5.50;99.90
23609;DHT22;11982;50.810;4.442;2022-11-20T06:26:25;5.40;99.90
23609;DHT22;11982;50.810;4.442;2022-11-20T06:28:52;5.50;99.90
23609;DHT22;11982;50.810;4.442;2022-11-20T06:31:21;5.50;99.90
23609;DHT22;11982;50.810;4.442;2022-11-20T06:33:47;5.40;99.90
23609;DHT22;11982;50.810;4.442;2022-11-20T06:36:15;5.60;99.90
23609;DHT22;11982;50.810;4.442;2022-11-20T06:38:41;5.60;99.90
23609;DHT22;11982;50.810;4.442;2022-11-20T06:41:11;5.60;99.90
23609;DHT22;11982;50.810;4.442;2022-11-20T06:43:37;5.70;99.90
23609;DHT22;11982;50.810;4.442;2022-11-20T06:46:03;5.80;99.90
23609;DHT22;11982;50.810;4.442;2022-11-20T06:48:29;5.80;99.90
23609;DHT22;11982;50.810;4.442;2022-11-20T06:50:55;5.90;99.90
23609;DHT22;11982;50.810;4.442;2022-11-20T06:53:21;5.90;99.90
23609;DHT22;11982;50.810;4.442;2022-11-20T06:55:48;6.00;99.90
23609;DHT22;11982;50.810;4.442;2022-11-20T06:58:15;6.00;99.90
23609;DHT22;11982;50.810;4.442;2022-11-20T07:00:41;6.00;99.90
23609;DHT22;11982;50.810;4.442;2022-11-20T07:03:08;5.80;99.90
23609;DHT22;11982;50.810;4.442;2022-11-20T07:05:34;5.70;99.90
23609;DHT22;11982;50.810;4.442;2022-11-20T07:08:00;5.60;99.90
23609;DHT22;11982;50.810;4.442;2022-11-20T07:10:25;5.50;99.90
23609;DHT22;11982;50.810;4.442;2022-11-20T07:12:52;5.50;99.90
23609;DHT22;11982;50.810;4.442;2022-11-20T07:15:19;5.40;99.90
23609;DHT22;11982;50.810;4.442;2022-11-20T07:17:45;5.60;99.90
23609;DHT22;11982;50.810;4.442;2022-11-20T07:20:10;5.70;99.90
23609;DHT22;11982;50.810;4.442;2022-11-20T07:22:36;5.90;99.90
23609;DHT22;11982;50.810;4.442;2022-11-20T07:25:02;6.10;99.90
23609;DHT22;11982;50.810;4.442;2022-11-20T07:27:28;6.20;99.90
23609;DHT22;11982;50.810;4.442;2022-11-20T07:29:54;6.30;99.90
23609;DHT22;11982;50.810;4.442;2022-11-20T07:32:20;6.40;99.90
23609;DHT22;11982;50.810;4.442;2022-11-20T07:34:47;6.60;99.90
23609;DHT22;11982;50.810;4.442;2022-11-20T07:37:13;6.70;99.90
23609;DHT22;11982;50.810;4.442;2022-11-20T07:39:38;6.90;99.90
23609;DHT22;11982;50.810;4.442;2022-11-20T07:42:05;6.80;99.90
23609;DHT22;11982;50.810;4.442;2022-11-20T07:44:31;6.70;99.90
23609;DHT22;11982;50.810;4.442;2022-11-20T07:46:56;6.50;99.90
23609;DHT22;11982;50.810;4.442;2022-11-20T07:49:22;6.60;99.90
23609;DHT22;11982;50.810;4.442;2022-11-20T07:51:50;6.70;99.90
23609;DHT22;11982;50.810;4.442;2022-11-20T07:54:16;6.80;99.90
23609;DHT22;11982;50.810;4.442;2022-11-20T07:56:42;6.90;99.90
23609;DHT22;11982;50.810;4.442;2022-11-20T07:59:07;6.90;99.90
23609;DHT22;11982;50.810;4.442;2022-11-20T08:01:33;6.90;99.90
23609;DHT22;11982;50.810;4.442;2022-11-20T08:03:58;7.00;99.90
23609;DHT22;11982;50.810;4.442;2022-11-20T08:06:24;7.00;99.90
23609;DHT22;11982;50.810;4.442;2022-11-20T08:08:50;6.90;99.90
23609;DHT22;11982;50.810;4.442;2022-11-20T08:11:16;7.00;99.90
23609;DHT22;11982;50.810;4.442;2022-11-20T08:14:00;6.90;99.90
23609;DHT22;11982;50.810;4.442;2022-11-20T08:16:42;6.80;99.90
23609;DHT22;11982;50.810;4.442;2022-11-20T08:19:08;7.10;99.90
23609;DHT22;11982;50.810;4.442;2022-11-20T08:21:33;7.30;99.90
23609;DHT22;11982;50.810;4.442;2022-11-20T08:23:59;7.40;99.90
23609;DHT22;11982;50.810;4.442;2022-11-20T08:26:25;7.60;99.90
23609;DHT22;11982;50.810;4.442;2022-11-20T08:28:54;7.60;99.90
23609;DHT22;11982;50.810;4.442;2022-11-20T08:31:20;7.50;99.90
23609;DHT22;11982;50.810;4.442;2022-11-20T08:33:46;7.60;99.90
23609;DHT22;11982;50.810;4.442;2022-11-20T08:36:12;7.60;99.90
23609;DHT22;11982;50.810;4.442;2022-11-20T08:38:38;7.30;99.90
23609;DHT22;11982;50.810;4.442;2022-11-20T08:41:04;7.00;99.90
23609;DHT22;11982;50.810;4.442;2022-11-20T08:43:48;7.10;99.90
23609;DHT22;11982;50.810;4.442;2022-11-20T08:46:14;7.20;99.90
23609;DHT22;11982;50.810;4.442;2022-11-20T08:48:40;7.10;99.90
23609;DHT22;11982;50.810;4.442;2022-11-20T08:51:06;7.00;99.90
23609;DHT22;11982;50.810;4.442;2022-11-20T08:53:32;6.90;99.90
23609;DHT22;11982;50.810;4.442;2022-11-20T08:55:58;7.20;99.90
23609;DHT22;11982;50.810;4.442;2022-11-20T08:58:24;7.20;99.90
23609;DHT22;11982;50.810;4.442;2022-11-20T09:00:50;7.20;99.90
23609;DHT22;11982;50.810;4.442;2022-11-20T09:03:15;7.30;99.90
23609;DHT22;11982;50.810;4.442;2022-11-20T09:05:41;7.50;99.90
23609;DHT22;11982;50.810;4.442;2022-11-20T09:08:08;7.70;99.90
23609;DHT22;11982;50.810;4.442;2022-11-20T09:10:33;7.90;99.90
23609;DHT22;11982;50.810;4.442;2022-11-20T09:12:59;8.00;99.90
23609;DHT22;11982;50.810;4.442;2022-11-20T09:15:25;8.00;99.90
23609;DHT22;11982;50.810;4.442;2022-11-20T09:17:55;8.10;99.90
23609;DHT22;11982;50.810;4.442;2022-11-20T09:20:21;8.20;99.90
23609;DHT22;11982;50.810;4.442;2022-11-20T09:22:47;8.30;99.90
23609;DHT22;11982;50.810;4.442;2022-11-20T09:25:12;8.50;99.90
23609;DHT22;11982;50.810;4.442;2022-11-20T09:27:38;8.80;99.90
23609;DHT22;11982;50.810;4.442;2022-11-20T09:30:04;8.80;99.90
23609;DHT22;11982;50.810;4.442;2022-11-20T09:32:30;8.80;99.90
23609;DHT22;11982;50.810;4.442;2022-11-20T09:34:56;9.00;99.90
23609;DHT22;11982;50.810;4.442;2022-11-20T09:37:21;9.10;99.90
23609;DHT22;11982;50.810;4.442;2022-11-20T09:39:47;9.00;99.90
23609;DHT22;11982;50.810;4.442;2022-11-20T09:47:35;9.30;99.90
23609;DHT22;11982;50.810;4.442;2022-11-20T09:55:40;9.20;99.90
23609;DHT22;11982;50.810;4.442;2022-11-20T09:58:13;9.50;99.90
23609;DHT22;11982;50.810;4.442;2022-11-20T10:00:41;9.50;99.90
23609;DHT22;11982;50.810;4.442;2022-11-20T10:03:21;9.50;99.90
23609;DHT22;11982;50.810;4.442;2022-11-20T10:05:52;9.10;99.90
23609;DHT22;11982;50.810;4.442;2022-11-20T10:08:39;9.30;99.90
23609;DHT22;11982;50.810;4.442;2022-11-20T10:19:38;8.70;99.90
23609;DHT22;11982;50.810;4.442;2022-11-20T10:25:06;8.60;99.90
23609;DHT22;11982;50.810;4.442;2022-11-20T10:30:20;9.00;99.90
23609;DHT22;11982;50.810;4.442;2022-11-20T10:32:54;9.10;99.90
23609;DHT22;11982;50.810;4.442;2022-11-20T10:35:38;9.40;99.90
23609;DHT22;11982;50.810;4.442;2022-11-20T10:38:13;9.40;99.90
23609;DHT22;11982;50.810;4.442;2022-11-20T10:40:51;9.40;99.90
23609;DHT22;11982;50.810;4.442;2022-11-20T10:43:24;9.30;99.90
23609;DHT22;11982;50.810;4.442;2022-11-20T10:46:04;9.30;99.90
23609;DHT22;11982;50.810;4.442;2022-11-20T10:48:31;9.40;99.90
23609;DHT22;11982;50.810;4.442;2022-11-20T10:54:22;9.40;99.90
23609;DHT22;11982;50.810;4.442;2022-11-20T10:56:53;9.40;99.90
23609;DHT22;11982;50.810;4.442;2022-11-20T11:01:56;9.00;99.90
23609;DHT22;11982;50.810;4.442;2022-11-20T11:04:42;9.00;99.90
23609;DHT22;11982;50.810;4.442;2022-11-20T11:07:10;9.00;99.90
23609;DHT22;11982;50.810;4.442;2022-11-20T11:09:43;9.00;99.90
23609;DHT22;11982;50.810;4.442;2022-11-20T11:12:09;9.00;99.90
23609;DHT22;11982;50.810;4.442;2022-11-20T11:14:52;9.10;99.90
23609;DHT22;11982;50.810;4.442;2022-11-20T11:20:22;9.30;99.90
23609;DHT22;11982;50.810;4.442;2022-11-20T11:22:58;9.20;99.90
23609;DHT22;11982;50.810;4.442;2022-11-20T11:27:56;9.40;99.90
23609;DHT22;11982;50.810;4.442;2022-11-20T11:30:23;9.20;99.90
23609;DHT22;11982;50.810;4.442;2022-11-20T11:32:50;9.20;99.90
23609;DHT22;11982;50.810;4.442;2022-11-20T11:35:26;9.30;99.90
23609;DHT22;11982;50.810;4.442;2022-11-20T11:38:02;9.30;99.90
23609;DHT22;11982;50.810;4.442;2022-11-20T11:40:31;9.20;99.90
23609;DHT22;11982;50.810;4.442;2022-11-20T11:42:59;9.10;99.90
23609;DHT22;11982;50.810;4.442;2022-11-20T11:45:26;8.90;99.90
23609;DHT22;11982;50.810;4.442;2022-11-20T11:47:54;8.80;99.90
23609;DHT22;11982;50.810;4.442;2022-11-20T11:50:26;8.80;99.90
23609;DHT22;11982;50.810;4.442;2022-11-20T12:04:16;8.70;99.90
23609;DHT22;11982;50.810;4.442;2022-11-20T12:06:45;8.80;99.90
23609;DHT22;11982;50.810;4.442;2022-11-20T12:09:12;8.60;99.90
23609;DHT22;11982;50.810;4.442;2022-11-20T12:11:56;8.50;99.90
23609;DHT22;11982;50.810;4.442;2022-11-20T12:14:35;8.40;99.90
23609;DHT22;11982;50.810;4.442;2022-11-20T12:17:03;8.20;99.90
23609;DHT22;11982;50.810;4.442;2022-11-20T12:19:31;8.00;99.90
23609;DHT22;11982;50.810;4.442;2022-11-20T12:30:13;7.90;99.90
23609;DHT22;11982;50.810;4.442;2022-11-20T12:33:18;8.00;99.90
23609;DHT22;11982;50.810;4.442;2022-11-20T12:44:39;7.90;99.90
23609;DHT22;11982;50.810;4.442;2022-11-20T12:53:25;7.80;99.90
23609;DHT22;11982;50.810;4.442;2022-11-20T13:07:05;8.30;99.90
23609;DHT22;11982;50.810;4.442;2022-11-20T13:09:33;8.30;99.90
23609;DHT22;11982;50.810;4.442;2022-11-20T13:14:41;8.50;99.90
23609;DHT22;11982;50.810;4.442;2022-11-20T13:17:13;8.30;99.90
23609;DHT22;11982;50.810;4.442;2022-11-20T13:19:40;8.30;99.90
23609;DHT22;11982;50.810;4.442;2022-11-20T13:22:08;8.20;99.90
23609;DHT22;11982;50.810;4.442;2022-11-20T13:24:34;8.10;99.90
23609;DHT22;11982;50.810;4.442;2022-11-20T13:27:19;8.10;99.90
23609;DHT22;11982;50.810;4.442;2022-11-20T13:29:58;8.10;99.90
23609;DHT22;11982;50.810;4.442;2022-11-20T13:32:26;8.00;99.90
23609;DHT22;11982;50.810;4.442;2022-11-20T13:35:02;8.00;99.90
23609;DHT22;11982;50.810;4.442;2022-11-20T13:42:45;7.90;99.90
23609;DHT22;11982;50.810;4.442;2022-11-20T13:45:26;7.90;99.90
23609;DHT22;11982;50.810;4.442;2022-11-20T13:47:53;8.10;99.90
23609;DHT22;11982;50.810;4.442;2022-11-20T13:50:27;8.00;99.90
23609;DHT22;11982;50.810;4.442;2022-11-20T13:56:23;8.00;99.90
23609;DHT22;11982;50.810;4.442;2022-11-20T14:01:23;7.90;99.90
23609;DHT22;11982;50.810;4.442;2022-11-20T14:03:50;8.00;99.90
23609;DHT22;11982;50.810;4.442;2022-11-20T14:06:29;8.00;99.90
23609;DHT22;11982;50.810;4.442;2022-11-20T14:08:56;8.00;99.90
23609;DHT22;11982;50.810;4.442;2022-11-20T14:11:24;8.10;99.90
23609;DHT22;11982;50.810;4.442;2022-11-20T14:16:22;8.00;99.90
23609;DHT22;11982;50.810;4.442;2022-11-20T14:18:49;8.00;99.90
23609;DHT22;11982;50.810;4.442;2022-11-20T14:21:29;7.90;99.90
23609;DHT22;11982;50.810;4.442;2022-11-20T14:24:10;7.80;99.90
23609;DHT22;11982;50.810;4.442;2022-11-20T14:26:38;7.80;99.90
23609;DHT22;11982;50.810;4.442;2022-11-20T14:29:18;7.80;99.90
23609;DHT22;11982;50.810;4.442;2022-11-20T14:31:45;7.70;99.90
23609;DHT22;11982;50.810;4.442;2022-11-20T14:34:26;7.70;99.90
23609;DHT22;11982;50.810;4.442;2022-11-20T14:36:57;7.80;99.90
23609;DHT22;11982;50.810;4.442;2022-11-20T14:39:32;7.70;99.90
23609;DHT22;11982;50.810;4.442;2022-11-20T14:41:58;7.80;99.90
23609;DHT22;11982;50.810;4.442;2022-11-20T14:44:28;7.80;99.90
23609;DHT22;11982;50.810;4.442;2022-11-20T14:46:55;7.80;99.90
23609;DHT22;11982;50.810;4.442;2022-11-20T14:49:21;7.80;99.90
23609;DHT22;11982;50.810;4.442;2022-11-20T14:51:47;7.80;99.90
23609;DHT22;11982;50.810;4.442;2022-11-20T14:54:23;7.80;99.90
23609;DHT22;11982;50.810;4.442;2022-11-20T14:56:55;7.80;99.90
23609;DHT22;11982;50.810;4.442;2022-11-20T14:59:25;7.80;99.90
23609;DHT22;11982;50.810;4.442;2022-11-20T15:02:11;7.90;99.90
23609;DHT22;11982;50.810;4.442;2022-11-20T15:07:11;7.90;99.90
23609;DHT22;11982;50.810;4.442;2022-11-20T15:09:37;7.90;99.90
23609;DHT22;11982;50.810;4.442;2022-11-20T15:12:04;7.90;99.90
23609;DHT22;11982;50.810;4.442;2022-11-20T15:14:30;7.90;99.90
23609;DHT22;11982;50.810;4.442;2022-11-20T15:16:59;8.00;99.90
23609;DHT22;11982;50.810;4.442;2022-11-20T15:19:26;8.00;99.90
23609;DHT22;11982;50.810;4.442;2022-11-20T15:21:52;8.10;99.90
23609;DHT22;11982;50.810;4.442;2022-11-20T15:24:18;8.10;99.90
23609;DHT22;11982;50.810;4.442;2022-11-20T15:26:44;8.10;99.90
23609;DHT22;11982;50.810;4.442;2022-11-20T15:29:15;8.10;99.90
23609;DHT22;11982;50.810;4.442;2022-11-20T15:31:44;8.10;99.90
23609;DHT22;11982;50.810;4.442;2022-11-20T15:34:14;8.10;99.90
23609;DHT22;11982;50.810;4.442;2022-11-20T15:36:41;8.20;99.90
23609;DHT22;11982;50.810;4.442;2022-11-20T15:39:08;8.10;99.90
23609;DHT22;11982;50.810;4.442;2022-11-20T15:41:35;8.10;99.90
23609;DHT22;11982;50.810;4.442;2022-11-20T15:44:01;8.10;99.90
23609;DHT22;11982;50.810;4.442;2022-11-20T15:46:28;8.20;99.90
23609;DHT22;11982;50.810;4.442;2022-11-20T15:48:56;8.20;99.90
23609;DHT22;11982;50.810;4.442;2022-11-20T15:51:33;8.20;99.90
23609;DHT22;11982;50.810;4.442;2022-11-20T15:53:59;8.20;99.90
23609;DHT22;11982;50.810;4.442;2022-11-20T15:56:25;8.30;99.90
23609;DHT22;11982;50.810;4.442;2022-11-20T15:58:51;8.30;99.90
23609;DHT22;11982;50.810;4.442;2022-11-20T16:01:19;8.30;99.90
23609;DHT22;11982;50.810;4.442;2022-11-20T16:03:46;8.30;99.90
23609;DHT22;11982;50.810;4.442;2022-11-20T16:06:12;8.30;99.90
23609;DHT22;11982;50.810;4.442;2022-11-20T16:08:38;8.40;99.90
23609;DHT22;11982;50.810;4.442;2022-11-20T16:11:04;8.40;99.90
23609;DHT22;11982;50.810;4.442;2022-11-20T16:13:31;8.40;99.90
23609;DHT22;11982;50.810;4.442;2022-11-20T16:16:21;8.50;99.90
23609;DHT22;11982;50.810;4.442;2022-11-20T16:18:48;8.50;99.90
23609;DHT22;11982;50.810;4.442;2022-11-20T16:21:13;8.50;99.90
23609;DHT22;11982;50.810;4.442;2022-11-20T16:23:39;8.50;99.90
23609;DHT22;11982;50.810;4.442;2022-11-20T16:26:16;8.50;99.90
23609;DHT22;11982;50.810;4.442;2022-11-20T16:28:46;8.50;99.90
23609;DHT22;11982;50.810;4.442;2022-11-20T16:31:19;8.50;99.90
23609;DHT22;11982;50.810;4.442;2022-11-20T16:33:58;8.50;99.90
23609;DHT22;11982;50.810;4.442;2022-11-20T16:36:27;8.50;99.90
23609;DHT22;11982;50.810;4.442;2022-11-20T16:38:55;8.50;99.90
23609;DHT22;11982;50.810;4.442;2022-11-20T16:41:21;8.40;99.90
23609;DHT22;11982;50.810;4.442;2022-11-20T16:43:48;8.40;99.90
23609;DHT22;11982;50.810;4.442;2022-11-20T16:46:15;8.40;99.90
23609;DHT22;11982;50.810;4.442;2022-11-20T16:48:41;8.40;99.90
23609;DHT22;11982;50.810;4.442;2022-11-20T16:51:11;8.50;99.90
23609;DHT22;11982;50.810;4.442;2022-11-20T16:53:38;8.50;99.90
23609;DHT22;11982;50.810;4.442;2022-11-20T16:56:14;8.50;99.90
23609;DHT22;11982;50.810;4.442;2022-11-20T16:58:44;8.50;99.90
23609;DHT22;11982;50.810;4.442;2022-11-20T17:01:13;8.40;99.90
23609;DHT22;11982;50.810;4.442;2022-11-20T17:03:40;8.40;99.90
23609;DHT22;11982;50.810;4.442;2022-11-20T17:06:13;8.50;99.90
23609;DHT22;11982;50.810;4.442;2022-11-20T17:08:39;8.50;99.90
23609;DHT22;11982;50.810;4.442;2022-11-20T17:11:09;8.50;99.90
23609;DHT22;11982;50.810;4.442;2022-11-20T17:13:35;8.50;99.90
23609;DHT22;11982;50.810;4.442;2022-11-20T17:16:06;8.60;99.90
23609;DHT22;11982;50.810;4.442;2022-11-20T17:18:32;8.60;99.90
23609;DHT22;11982;50.810;4.442;2022-11-20T17:20:58;8.70;99.90
23609;DHT22;11982;50.810;4.442;2022-11-20T17:23:27;8.70;99.90
23609;DHT22;11982;50.810;4.442;2022-11-20T17:26:03;8.60;99.90
23609;DHT22;11982;50.810;4.442;2022-11-20T17:28:30;8.60;99.90
23609;DHT22;11982;50.810;4.442;2022-11-20T17:31:09;8.60;99.90
23609;DHT22;11982;50.810;4.442;2022-11-20T17:33:37;8.50;99.90
23609;DHT22;11982;50.810;4.442;2022-11-20T17:36:04;8.50;99.90